createdAt,value
2022-12-31T00:01:17.974Z,97319.06
2022-12-31T00:03:44.246Z,97331.03
2022-12-31T00:06:10.510Z,97331.75
2022-12-31T00:08:36.766Z,97311.97
2022-12-31T00:11:03.007Z,97305.81
2022-12-31T00:13:29.251Z,97311.25
2022-12-31T00:15:55.527Z,97308.25
2022-12-31T00:18:21.828Z,97301.28
2022-12-31T00:20:48.117Z,97314.41
2022-12-31T00:23:14.377Z,97297.16
2022-12-31T00:25:40.644Z,97314.75
2022-12-31T00:28:06.953Z,97321.63
2022-12-31T00:30:33.267Z,97318.38
2022-12-31T00:32:59.538Z,97307.09
2022-12-31T00:35:25.812Z,97305.72
2022-12-31T00:37:52.057Z,97305.94
2022-12-31T00:40:18.366Z,97308.97
2022-12-31T00:42:44.627Z,97301.50
2022-12-31T00:45:10.891Z,97307.09
2022-12-31T00:47:37.167Z,97305.94
2022-12-31T00:50:03.529Z,97300.25
2022-12-31T00:52:29.831Z,97303.41
2022-12-31T00:54:56.086Z,97295.50
2022-12-31T00:57:22.345Z,97292.25
2022-12-31T00:59:48.615Z,97295.19
2022-12-31T01:02:15.043Z,97307.97
2022-12-31T01:04:41.448Z,97303.19
2022-12-31T01:07:07.764Z,97304.50
2022-12-31T01:09:34.032Z,97314.97
2022-12-31T01:12:00.311Z,97293.88
2022-12-31T01:14:26.661Z,97301.09
2022-12-31T01:16:52.951Z,97288.78
2022-12-31T01:19:20.247Z,97290.41
2022-12-31T01:21:46.516Z,97300.28
2022-12-31T01:24:12.787Z,97311.00
2022-12-31T01:26:39.060Z,97301.34
2022-12-31T01:29:05.337Z,97297.38
2022-12-31T01:31:31.670Z,97300.06
2022-12-31T01:33:57.958Z,97300.06
2022-12-31T01:36:26.102Z,97305.84
2022-12-31T01:38:52.652Z,97315.50
2022-12-31T01:41:18.925Z,97302.13
2022-12-31T01:43:45.203Z,97310.97
2022-12-31T01:46:11.530Z,97308.28
2022-12-31T01:48:37.830Z,97306.91
2022-12-31T01:51:04.089Z,97312.47
2022-12-31T01:53:30.336Z,97303.41
2022-12-31T01:55:56.603Z,97308.75
2022-12-31T01:58:22.917Z,97310.63
2022-12-31T02:00:49.182Z,97324.09
2022-12-31T02:03:15.496Z,97323.28
2022-12-31T02:05:41.804Z,97335.53
2022-12-31T02:08:08.094Z,97327.03
2022-12-31T02:10:34.382Z,97327.59
2022-12-31T02:13:00.669Z,97321.31
2022-12-31T02:15:26.925Z,97311.53
2022-12-31T02:17:53.185Z,97304.31
2022-12-31T02:20:19.477Z,97298.16
2022-12-31T02:22:45.775Z,97303.84
2022-12-31T02:25:12.351Z,97306.75
2022-12-31T02:27:38.609Z,97313.75
2022-12-31T02:30:04.855Z,97318.84
2022-12-31T02:32:31.146Z,97328.75
2022-12-31T02:34:57.396Z,97320.72
2022-12-31T02:37:23.665Z,97322.47
2022-12-31T02:39:49.942Z,97329.47
2022-12-31T02:42:16.211Z,97337.47
2022-12-31T02:44:42.479Z,97332.13
2022-12-31T02:47:08.750Z,97322.81
2022-12-31T02:49:35.045Z,97319.81
2022-12-31T02:52:01.340Z,97316.88
2022-12-31T02:54:27.685Z,97310.97
2022-12-31T02:56:54.027Z,97310.97
2022-12-31T02:59:20.265Z,97319.22
2022-12-31T03:01:46.630Z,97320.84
2022-12-31T03:04:12.978Z,97320.84
2022-12-31T03:06:39.232Z,97322.25
2022-12-31T03:09:05.506Z,97320.38
2022-12-31T03:11:31.772Z,97320.63
2022-12-31T03:13:58.044Z,97313.63
2022-12-31T03:16:24.332Z,97317.69
2022-12-31T03:18:50.599Z,97317.69
2022-12-31T03:21:16.866Z,97313.75
2022-12-31T03:23:43.173Z,97307.22
2022-12-31T03:26:09.444Z,97310.63
2022-12-31T03:28:35.707Z,97311.44
2022-12-31T03:31:02.032Z,97311.44
2022-12-31T03:33:28.369Z,97308.19
2022-12-31T03:35:54.626Z,97307.94
2022-12-31T03:38:20.895Z,97307.59
2022-12-31T03:40:47.141Z,97304.56
2022-12-31T03:43:13.389Z,97306.66
2022-12-31T03:45:39.714Z,97301.53
2022-12-31T03:48:05.996Z,97301.78
2022-12-31T03:50:32.256Z,97307.72
2022-12-31T03:52:58.560Z,97296.66
2022-12-31T03:55:24.822Z,97305.16
2022-12-31T03:57:51.092Z,97311.91
2022-12-31T04:00:17.479Z,97314.94
2022-12-31T04:02:43.741Z,97316.78
2022-12-31T04:05:10.151Z,97340.88
2022-12-31T04:07:36.444Z,97329.34
2022-12-31T04:10:02.695Z,97327.25
2022-12-31T04:12:28.932Z,97319.22
2022-12-31T04:14:55.210Z,97320.38
2022-12-31T04:17:21.483Z,97320.38
2022-12-31T04:19:47.755Z,97311.06
2022-12-31T04:22:14.018Z,97309.28
2022-12-31T04:24:40.292Z,97307.91
2022-12-31T04:27:07.985Z,97313.50
2022-12-31T04:29:34.503Z,97313.75
2022-12-31T04:32:00.832Z,97314.22
2022-12-31T04:34:27.158Z,97312.59
2022-12-31T04:36:53.433Z,97323.28
2022-12-31T04:39:19.687Z,97319.56
2022-12-31T04:41:45.966Z,97325.72
2022-12-31T04:44:12.241Z,97309.44
2022-12-31T04:46:38.516Z,97311.78
2022-12-31T04:49:04.774Z,97314.31
2022-12-31T04:51:31.039Z,97315.38
2022-12-31T04:53:57.303Z,97312.44
2022-12-31T04:56:23.578Z,97309.28
2022-12-31T04:58:49.852Z,97302.56
2022-12-31T05:01:16.347Z,97302.94
2022-12-31T05:03:42.748Z,97308.84
2022-12-31T05:06:09.008Z,97311.19
2022-12-31T05:08:35.281Z,97314.69
2022-12-31T05:11:01.554Z,97312.25
2022-12-31T05:13:32.872Z,97309.56
2022-12-31T05:15:59.695Z,97306.41
2022-12-31T05:18:25.959Z,97307.22
2022-12-31T05:20:52.213Z,97316.31
2022-12-31T05:23:18.485Z,97321.91
2022-12-31T05:25:44.762Z,97316.06
2022-12-31T05:28:11.040Z,97320.72
2022-12-31T05:30:37.382Z,97318.06
2022-12-31T05:33:03.743Z,97303.06
2022-12-31T05:35:30.031Z,97297.47
2022-12-31T05:37:57.342Z,97301.53
2022-12-31T05:40:23.592Z,97302.13
2022-12-31T05:42:49.883Z,97304.56
2022-12-31T05:45:16.131Z,97320.38
2022-12-31T05:47:42.460Z,97317.38
2022-12-31T05:50:08.732Z,97322.47
2022-12-31T05:52:34.987Z,97325.41
2022-12-31T05:55:01.254Z,97328.88
2022-12-31T05:57:27.545Z,97334.94
2022-12-31T05:59:53.828Z,97336.56
2022-12-31T06:02:20.137Z,97344.50
2022-12-31T06:04:46.452Z,97333.78
2022-12-31T06:07:12.720Z,97342.75
2022-12-31T06:09:38.977Z,97346.25
2022-12-31T06:12:05.220Z,97343.34
2022-12-31T06:14:31.517Z,97343.56
2022-12-31T06:16:57.839Z,97341.94
2022-12-31T06:19:24.134Z,97341.94
2022-12-31T06:21:50.405Z,97334.16
2022-12-31T06:24:16.661Z,97338.47
2022-12-31T06:26:42.924Z,97335.91
2022-12-31T06:29:09.176Z,97335.34
2022-12-31T06:31:35.486Z,97339.41
2022-12-31T06:34:01.780Z,97342.66
2022-12-31T06:36:28.076Z,97351.38
2022-12-31T06:38:54.337Z,97348.94
2022-12-31T06:41:20.619Z,97351.16
2022-12-31T06:43:46.899Z,97348.72
2022-12-31T06:46:13.394Z,97355.44
2022-12-31T06:48:39.694Z,97355.44
2022-12-31T06:51:05.952Z,97356.50
2022-12-31T06:53:32.216Z,97359.66
2022-12-31T06:55:58.472Z,97367.66
2022-12-31T06:58:24.737Z,97362.22
2022-12-31T07:00:51.027Z,97363.03
2022-12-31T07:03:18.293Z,97363.03
2022-12-31T07:05:44.560Z,97365.69
2022-12-31T07:08:10.818Z,97360.13
2022-12-31T07:10:37.076Z,97361.75
2022-12-31T07:13:03.451Z,97359.19
2022-12-31T07:15:29.730Z,97350.69
2022-12-31T07:17:56.008Z,97352.78
2022-12-31T07:20:22.272Z,97355.91
2022-12-31T07:22:48.533Z,97356.16
2022-12-31T07:25:14.797Z,97355.09
2022-12-31T07:27:41.056Z,97357.78
2022-12-31T07:30:07.351Z,97362.31
2022-12-31T07:32:33.603Z,97363.25
2022-12-31T07:34:59.869Z,97365.22
2022-12-31T07:37:26.133Z,97371.84
2022-12-31T07:39:52.408Z,97363.00
2022-12-31T07:42:18.715Z,97367.31
2022-12-31T07:44:44.987Z,97379.06
2022-12-31T07:47:11.249Z,97371.03
2022-12-31T07:49:37.493Z,97377.78
2022-12-31T07:52:03.769Z,97375.69
2022-12-31T07:54:30.022Z,97369.28
2022-12-31T07:56:56.304Z,97375.44
2022-12-31T07:59:24.433Z,97378.69
2022-12-31T08:01:51.176Z,97376.13
2022-12-31T08:04:17.567Z,97371.69
2022-12-31T08:06:43.841Z,97364.47
2022-12-31T08:09:10.115Z,97362.38
2022-12-31T08:11:36.379Z,97363.75
2022-12-31T08:14:02.634Z,97359.69
2022-12-31T08:16:28.951Z,97361.41
2022-12-31T08:18:55.205Z,97370.59
2022-12-31T08:21:21.477Z,97367.34
2022-12-31T08:23:47.743Z,97365.47
2022-12-31T08:26:14.017Z,97364.66
2022-12-31T08:28:40.301Z,97377.47
2022-12-31T08:31:06.578Z,97367.09
2022-12-31T08:33:32.847Z,97362.91
2022-12-31T08:35:59.138Z,97381.97
2022-12-31T08:38:25.408Z,97395.13
2022-12-31T08:40:51.674Z,97393.97
2022-12-31T08:43:17.952Z,97392.78
2022-12-31T08:45:44.219Z,97388.81
2022-12-31T08:48:10.523Z,97384.59
2022-12-31T08:50:36.792Z,97396.59
2022-12-31T08:53:03.024Z,97391.34
2022-12-31T08:55:29.276Z,97384.75
2022-12-31T08:57:55.526Z,97395.56
2022-12-31T09:00:21.776Z,97388.25
2022-12-31T09:02:48.452Z,97388.91
2022-12-31T09:05:14.821Z,97394.22
2022-12-31T09:07:41.095Z,97390.00
2022-12-31T09:10:07.375Z,97397.47
2022-12-31T09:12:33.655Z,97391.72
2022-12-31T09:14:59.916Z,97389.13
2022-12-31T09:17:26.193Z,97383.78
2022-12-31T09:19:52.455Z,97381.66
2022-12-31T09:22:18.757Z,97394.25
2022-12-31T09:24:45.048Z,97394.00
2022-12-31T09:27:11.333Z,97392.81
2022-12-31T09:29:37.636Z,97395.50
2022-12-31T09:32:03.924Z,97392.56
2022-12-31T09:34:30.197Z,97391.44
2022-12-31T09:36:56.462Z,97399.56
2022-12-31T09:39:22.720Z,97389.66
2022-12-31T09:41:48.996Z,97383.81
2022-12-31T09:44:15.258Z,97379.81
2022-12-31T09:46:41.529Z,97383.66
2022-12-31T09:49:07.830Z,97369.34
2022-12-31T09:51:34.091Z,97372.66
2022-12-31T09:54:00.355Z,97372.56
2022-12-31T09:56:26.597Z,97361.84
2022-12-31T09:58:52.864Z,97364.78
2022-12-31T10:01:19.205Z,97361.03
2022-12-31T10:03:45.577Z,97362.41
2022-12-31T10:06:11.853Z,97359.00
2022-12-31T10:08:38.109Z,97352.09
2022-12-31T10:11:04.377Z,97354.53
2022-12-31T10:13:30.633Z,97352.66
2022-12-31T10:15:56.929Z,97351.03
2022-12-31T10:18:23.191Z,97346.28
2022-12-31T10:20:49.448Z,97332.88
2022-12-31T10:23:15.715Z,97342.56
2022-12-31T10:25:41.976Z,97343.63
2022-12-31T10:28:08.235Z,97330.19
2022-12-31T10:30:34.512Z,97336.88
2022-12-31T10:33:00.809Z,97325.56
2022-12-31T10:35:27.082Z,97327.75
2022-12-31T10:37:53.391Z,97326.13
2022-12-31T10:40:19.657Z,97328.31
2022-12-31T10:42:45.950Z,97333.44
2022-12-31T10:45:12.188Z,97324.44
2022-12-31T10:47:38.470Z,97321.25
2022-12-31T10:50:04.716Z,97310.09
2022-12-31T10:52:30.991Z,97303.16
2022-12-31T10:54:57.276Z,97309.91
2022-12-31T10:57:23.547Z,97301.63
2022-12-31T10:59:49.798Z,97307.78
2022-12-31T11:02:16.258Z,97303.97
2022-12-31T11:04:42.694Z,97306.72
2022-12-31T11:07:08.966Z,97298.75
2022-12-31T11:09:35.224Z,97303.25
2022-12-31T11:12:01.487Z,97299.81
2022-12-31T11:14:27.773Z,97295.94
2022-12-31T11:16:54.025Z,97285.31
2022-12-31T11:19:20.260Z,97279.38
2022-12-31T11:21:46.545Z,97285.81
2022-12-31T11:24:12.831Z,97280.13
2022-12-31T11:26:39.100Z,97283.94
2022-12-31T11:29:05.345Z,97279.94
2022-12-31T11:31:31.662Z,97270.25
2022-12-31T11:33:57.965Z,97261.63
2022-12-31T11:36:24.240Z,97259.31
2022-12-31T11:38:50.497Z,97257.91
2022-12-31T11:41:16.744Z,97248.03
2022-12-31T11:43:42.988Z,97247.22
2022-12-31T11:46:09.314Z,97236.97
2022-12-31T11:48:35.621Z,97233.28
2022-12-31T11:51:01.892Z,97240.00
2022-12-31T11:53:28.158Z,97232.78
2022-12-31T11:55:54.421Z,97232.72
2022-12-31T11:58:20.680Z,97224.56
2022-12-31T12:00:46.941Z,97221.31
2022-12-31T12:03:13.312Z,97211.06
2022-12-31T12:05:39.579Z,97213.22
2022-12-31T12:08:05.849Z,97206.78
2022-12-31T12:10:36.511Z,97215.38
2022-12-31T12:13:03.256Z,97208.91
2022-12-31T12:15:29.526Z,97202.22
2022-12-31T12:17:55.775Z,97199.28
2022-12-31T12:20:22.017Z,97199.91
2022-12-31T12:22:49.600Z,97192.16
2022-12-31T12:25:15.911Z,97193.72
2022-12-31T12:27:42.206Z,97191.84
2022-12-31T12:30:08.485Z,97194.78
2022-12-31T12:32:34.776Z,97193.25
2022-12-31T12:35:01.015Z,97194.13
2022-12-31T12:37:27.261Z,97193.91
2022-12-31T12:39:53.593Z,97191.97
2022-12-31T12:42:19.833Z,97191.16
2022-12-31T12:44:46.097Z,97189.03
2022-12-31T12:47:12.486Z,97195.81
2022-12-31T12:49:38.761Z,97193.41
2022-12-31T12:52:05.022Z,97196.16
2022-12-31T12:54:31.288Z,97185.47
2022-12-31T12:56:57.535Z,97183.03
2022-12-31T12:59:23.793Z,97196.81
2022-12-31T13:01:50.306Z,97194.19
2022-12-31T13:04:33.986Z,97184.00
2022-12-31T13:07:00.806Z,97187.75
2022-12-31T13:09:27.051Z,97187.78
2022-12-31T13:11:53.292Z,97185.38
2022-12-31T13:14:19.613Z,97185.63
2022-12-31T13:16:45.951Z,97186.19
2022-12-31T13:19:12.225Z,97188.09
2022-12-31T13:21:38.475Z,97198.31
2022-12-31T13:24:04.715Z,97192.13
2022-12-31T13:26:30.977Z,97188.63
2022-12-31T13:28:57.233Z,97199.69
2022-12-31T13:31:23.522Z,97187.03
2022-12-31T13:33:49.795Z,97189.44
2022-12-31T13:36:16.148Z,97193.22
2022-12-31T13:38:42.417Z,97189.44
2022-12-31T13:41:08.716Z,97200.19
2022-12-31T13:43:34.980Z,97191.59
2022-12-31T13:46:01.313Z,97195.06
2022-12-31T13:48:27.604Z,97200.44
2022-12-31T13:50:53.883Z,97196.13
2022-12-31T13:53:20.353Z,97198.56
2022-12-31T13:55:48.060Z,97203.97
2022-12-31T13:58:17.075Z,97206.41
2022-12-31T14:00:43.360Z,97214.50
2022-12-31T14:03:09.698Z,97208.84
2022-12-31T14:05:35.993Z,97208.84
2022-12-31T14:08:02.271Z,97201.28
2022-12-31T14:10:28.520Z,97204.19
2022-12-31T14:12:54.816Z,97205.22
2022-12-31T14:15:21.071Z,97213.78
2022-12-31T14:17:47.337Z,97207.03
2022-12-31T14:20:13.603Z,97217.00
2022-12-31T14:22:39.903Z,97204.88
2022-12-31T14:25:06.146Z,97201.63
2022-12-31T14:27:32.397Z,97201.63
2022-12-31T14:29:58.670Z,97219.94
2022-12-31T14:32:24.962Z,97224.25
2022-12-31T14:34:51.251Z,97212.19
2022-12-31T14:37:17.506Z,97215.97
2022-12-31T14:39:43.740Z,97223.50
2022-12-31T14:42:09.985Z,97223.78
2022-12-31T14:44:36.235Z,97222.47
2022-12-31T14:47:02.500Z,97228.13
2022-12-31T14:49:28.773Z,97221.97
2022-12-31T14:51:55.130Z,97218.78
2022-12-31T14:54:25.666Z,97215.56
2022-12-31T14:56:54.847Z,97230.34
2022-12-31T14:59:21.138Z,97222.56
2022-12-31T15:01:47.457Z,97233.31
2022-12-31T15:04:13.792Z,97233.06
2022-12-31T15:06:40.052Z,97229.81
2022-12-31T15:09:08.550Z,97238.41
2022-12-31T15:11:34.937Z,97234.06
2022-12-31T15:14:01.199Z,97246.66
2022-12-31T15:16:27.545Z,97240.44
2022-12-31T15:18:53.819Z,97233.97
2022-12-31T15:21:20.082Z,97240.66
2022-12-31T15:23:46.332Z,97243.06
2022-12-31T15:26:12.568Z,97237.66
2022-12-31T15:28:38.849Z,97244.66
2022-12-31T15:31:05.203Z,97240.59
2022-12-31T15:33:31.600Z,97237.34
2022-12-31T15:35:57.901Z,97248.38
2022-12-31T15:38:24.184Z,97238.97
2022-12-31T15:40:50.470Z,97244.00
2022-12-31T15:43:16.748Z,97241.34
2022-12-31T15:45:43.019Z,97248.84
2022-12-31T15:48:09.272Z,97256.84
2022-12-31T15:50:35.559Z,97258.44
2022-12-31T15:53:01.826Z,97254.63
2022-12-31T15:55:28.169Z,97258.41
2022-12-31T15:57:54.444Z,97256.22
2022-12-31T16:00:20.711Z,97250.50
2022-12-31T16:02:47.079Z,97255.81
2022-12-31T16:05:13.500Z,97260.09
2022-12-31T16:07:39.827Z,97264.91
2022-12-31T16:10:06.116Z,97267.03
2022-12-31T16:12:34.375Z,97265.09
2022-12-31T16:15:03.301Z,97268.84
2022-12-31T16:17:29.608Z,97275.03
2022-12-31T16:19:55.876Z,97265.59
2022-12-31T16:22:22.130Z,97276.03
2022-12-31T16:25:19.879Z,97275.53
2022-12-31T16:27:34.661Z,97276.03
2022-12-31T16:30:00.996Z,97287.34
2022-12-31T16:32:27.299Z,97288.06
2022-12-31T16:34:53.545Z,97285.38
2022-12-31T16:37:19.815Z,97286.72
2022-12-31T16:39:46.053Z,97286.72
2022-12-31T16:42:12.619Z,97289.09
2022-12-31T16:44:38.889Z,97295.03
2022-12-31T16:47:05.128Z,97298.84
2022-12-31T16:49:31.394Z,97304.47
2022-12-31T16:51:57.682Z,97295.03
2022-12-31T16:54:23.969Z,97297.16
2022-12-31T16:56:50.234Z,97300.09
2022-12-31T16:59:16.503Z,97299.34
2022-12-31T17:01:42.883Z,97307.97
2022-12-31T17:04:09.223Z,97302.41
2022-12-31T17:06:35.497Z,97312.88
2022-12-31T17:09:01.788Z,97307.06
2022-12-31T17:11:28.034Z,97305.19
2022-12-31T17:13:54.354Z,97307.06
2022-12-31T17:16:20.638Z,97316.44
2022-12-31T17:18:46.908Z,97312.69
2022-12-31T17:21:13.157Z,97315.81
2022-12-31T17:23:39.416Z,97312.28
2022-12-31T17:26:05.681Z,97317.59
2022-12-31T17:28:31.941Z,97318.66
2022-12-31T17:30:58.288Z,97325.09
2022-12-31T17:33:24.571Z,97323.28
2022-12-31T17:35:50.825Z,97319.53
2022-12-31T17:38:17.093Z,97318.72
2022-12-31T17:40:51.930Z,97318.47
2022-12-31T17:43:18.624Z,97319.22
2022-12-31T17:45:44.880Z,97321.41
2022-12-31T17:48:11.164Z,97320.59
2022-12-31T17:50:37.434Z,97319.72
2022-12-31T17:53:03.728Z,97321.84
2022-12-31T17:55:29.996Z,97320.78
2022-12-31T17:57:56.264Z,97312.66
2022-12-31T18:00:22.534Z,97310.22
2022-12-31T18:02:48.828Z,97301.59
2022-12-31T18:05:15.192Z,97310.84
2022-12-31T18:07:41.468Z,97309.22
2022-12-31T18:10:07.741Z,97309.47
2022-12-31T18:12:34.006Z,97300.59
2022-12-31T18:15:00.281Z,97306.53
2022-12-31T18:17:26.541Z,97299.22
2022-12-31T18:20:09.182Z,97313.22
2022-12-31T18:22:35.463Z,97311.66
2022-12-31T18:25:01.738Z,97317.09
2022-12-31T18:27:28.047Z,97302.66
2022-12-31T18:29:59.125Z,97303.72
2022-12-31T18:32:30.581Z,97300.72
2022-12-31T18:34:56.835Z,97305.53
2022-12-31T18:37:23.083Z,97311.41
2022-12-31T18:39:49.334Z,97303.34
2022-12-31T18:42:15.611Z,97313.28
2022-12-31T18:44:41.877Z,97316.28
2022-12-31T18:47:08.167Z,97314.41
2022-12-31T18:49:34.409Z,97316.28
2022-12-31T18:52:00.689Z,97321.44
2022-12-31T18:54:26.957Z,97324.38
2022-12-31T18:56:57.022Z,97321.66
2022-12-31T18:59:23.641Z,97320.53
2022-12-31T19:01:50.013Z,97315.66
2022-12-31T19:04:20.047Z,97316.97
2022-12-31T19:06:51.279Z,97328.22
2022-12-31T19:09:43.340Z,97328.22
2022-12-31T19:12:03.793Z,97328.72
2022-12-31T19:14:30.074Z,97333.53
2022-12-31T19:16:56.332Z,97329.47
2022-12-31T19:19:22.570Z,97328.59
2022-12-31T19:21:48.850Z,97336.88
2022-12-31T19:24:15.164Z,97332.31
2022-12-31T19:26:43.544Z,97332.88
2022-12-31T19:29:09.998Z,97329.09
2022-12-31T19:31:36.285Z,97331.19
2022-12-31T19:34:02.685Z,97330.16
2022-12-31T19:36:28.941Z,97329.56
2022-12-31T19:38:55.215Z,97326.72
2022-12-31T19:41:21.501Z,97342.44
2022-12-31T19:43:47.771Z,97336.50
2022-12-31T19:46:14.111Z,97345.94
2022-12-31T19:48:40.405Z,97338.44
2022-12-31T19:51:06.667Z,97343.81
2022-12-31T19:53:32.933Z,97352.44
2022-12-31T19:55:59.173Z,97343.31
2022-12-31T19:58:25.520Z,97350.00
2022-12-31T20:00:57.053Z,97354.06
2022-12-31T20:03:24.680Z,97345.69
2022-12-31T20:05:50.962Z,97356.13
2022-12-31T20:08:17.255Z,97362.56
2022-12-31T20:10:43.524Z,97359.31
2022-12-31T20:13:09.777Z,97368.41
2022-12-31T20:15:36.033Z,97364.84
2022-12-31T20:18:02.305Z,97369.16
2022-12-31T20:20:28.570Z,97366.66
2022-12-31T20:22:54.835Z,97370.28
2022-12-31T20:25:21.086Z,97379.94
2022-12-31T20:27:47.350Z,97385.81
2022-12-31T20:30:13.616Z,97392.22
2022-12-31T20:32:39.976Z,97388.25
2022-12-31T20:35:06.260Z,97389.13
2022-12-31T20:37:32.521Z,97374.66
2022-12-31T20:39:58.785Z,97379.53
2022-12-31T20:42:25.036Z,97389.75
2022-12-31T20:44:51.285Z,97390.31
2022-12-31T20:47:17.529Z,97391.94
2022-12-31T20:50:10.353Z,97391.13
2022-12-31T20:52:30.037Z,97385.84
2022-12-31T20:54:56.297Z,97388.28
2022-12-31T20:57:22.553Z,97385.34
2022-12-31T20:59:48.831Z,97388.78
2022-12-31T21:02:29.584Z,97393.31
2022-12-31T21:05:01.604Z,97391.94
2022-12-31T21:07:27.966Z,97389.59
2022-12-31T21:09:54.236Z,97384.72
2022-12-31T21:12:20.502Z,97393.00
2022-12-31T21:14:46.745Z,97388.47
2022-12-31T21:17:13.007Z,97395.38
2022-12-31T21:19:39.281Z,97399.69
2022-12-31T21:22:05.643Z,97398.31
2022-12-31T21:24:31.906Z,97394.31
2022-12-31T21:26:58.184Z,97404.25
2022-12-31T21:29:24.452Z,97414.97
2022-12-31T21:31:50.738Z,97417.66
2022-12-31T21:34:17.018Z,97416.84
2022-12-31T21:36:43.266Z,97421.97
2022-12-31T21:39:09.586Z,97416.59
2022-12-31T21:41:35.852Z,97414.72
2022-12-31T21:44:02.131Z,97414.97
2022-12-31T21:46:28.463Z,97420.03
2022-12-31T21:48:54.802Z,97424.84
2022-12-31T21:51:21.053Z,97429.16
2022-12-31T21:53:47.316Z,97423.84
2022-12-31T21:56:13.590Z,97412.28
2022-12-31T21:58:39.874Z,97430.84
2022-12-31T22:01:06.154Z,97427.09
2022-12-31T22:03:32.489Z,97432.78
2022-12-31T22:05:58.802Z,97430.91
2022-12-31T22:08:25.065Z,97428.97
2022-12-31T22:10:52.941Z,97438.56
2022-12-31T22:13:19.482Z,97444.44
2022-12-31T22:15:45.798Z,97444.19
2022-12-31T22:18:12.113Z,97441.19
2022-12-31T22:20:38.377Z,97449.97
2022-12-31T22:23:04.644Z,97453.47
2022-12-31T22:25:31.110Z,97458.03
2022-12-31T22:28:37.059Z,97449.97
2022-12-31T22:30:43.688Z,97453.97
2022-12-31T22:33:09.932Z,97447.22
2022-12-31T22:35:36.191Z,97459.09
2022-12-31T22:38:09.842Z,97454.28
2022-12-31T22:40:38.087Z,97450.53
2022-12-31T22:43:04.356Z,97452.66
2022-12-31T22:45:30.592Z,97449.97
2022-12-31T22:47:56.857Z,97461.19
2022-12-31T22:50:23.137Z,97467.22
2022-12-31T22:52:49.396Z,97477.94
2022-12-31T22:55:15.709Z,97474.22
2022-12-31T22:57:41.973Z,97475.75
2022-12-31T23:00:08.236Z,97472.09
2022-12-31T23:02:39.881Z,97470.72
2022-12-31T23:05:15.344Z,97463.47
2022-12-31T23:07:42.736Z,97470.72
2022-12-31T23:10:09.012Z,97477.53
2022-12-31T23:12:35.292Z,97476.31
2022-12-31T23:15:01.568Z,97477.78
2022-12-31T23:17:31.502Z,97467.63
2022-12-31T23:19:58.206Z,97463.88
2022-12-31T23:22:24.467Z,97461.19
2022-12-31T23:24:50.754Z,97470.22
2022-12-31T23:27:17.010Z,97468.28
2022-12-31T23:29:47.107Z,97475.25
2022-12-31T23:32:13.871Z,97468.03
2022-12-31T23:34:40.196Z,97476.31
2022-12-31T23:37:06.479Z,97475.03
2022-12-31T23:39:32.755Z,97472.59
2022-12-31T23:41:59.012Z,97475.19
2022-12-31T23:44:25.318Z,97476.00
2022-12-31T23:46:51.592Z,97477.31
2022-12-31T23:49:17.877Z,97482.34
2022-12-31T23:51:44.176Z,97490.31
2022-12-31T23:54:10.429Z,97484.91
2022-12-31T23:56:36.749Z,97485.00
2022-12-31T23:59:03.018Z,97498.91
